createdAt,value
2023-02-13T00:02:03.588Z,17.98
2023-02-13T00:05:12.110Z,18.55
2023-02-13T00:08:20.565Z,21.40
2023-02-13T00:11:29.283Z,18.62
2023-02-13T00:14:37.677Z,15.93
2023-02-13T00:17:59.536Z,16.55
2023-02-13T00:21:11.592Z,18.83
2023-02-13T00:24:26.851Z,17.17
2023-02-13T00:27:28.970Z,16.97
2023-02-13T00:30:43.578Z,13.02
2023-02-13T00:33:52.581Z,20.50
2023-02-13T00:37:01.455Z,18.98
2023-02-13T00:40:10.601Z,14.82
2023-02-13T00:43:21.239Z,17.50
2023-02-13T00:46:29.658Z,14.60
2023-02-13T00:49:44.569Z,17.50
2023-02-13T00:52:59.562Z,17.75
2023-02-13T00:56:08.834Z,16.30
2023-02-13T00:59:23.582Z,16.30
2023-02-13T01:02:32.842Z,14.73
2023-02-13T01:05:41.610Z,18.73
2023-02-13T01:08:49.583Z,22.08
2023-02-13T01:11:58.249Z,16.92
2023-02-13T01:15:06.585Z,19.52
2023-02-13T01:18:22.045Z,15.18
2023-02-13T01:21:36.549Z,15.95
2023-02-13T01:24:38.294Z,18.70
2023-02-13T01:27:52.546Z,16.00
2023-02-13T01:30:57.193Z,16.05
2023-02-13T01:34:11.574Z,22.23
2023-02-13T01:37:14.151Z,21.33
2023-02-13T01:40:28.594Z,13.17
2023-02-13T01:43:51.596Z,18.02
2023-02-13T01:47:00.244Z,21.20
2023-02-13T01:50:14.658Z,17.60
2023-02-13T01:53:30.960Z,16.97
2023-02-13T01:56:44.590Z,20.83
2023-02-13T02:00:06.598Z,13.80
2023-02-13T02:03:15.454Z,16.15
2023-02-13T02:06:34.621Z,25.90
2023-02-13T02:09:51.601Z,23.70
2023-02-13T02:13:12.583Z,21.52
2023-02-13T02:16:27.627Z,23.42
2023-02-13T02:19:44.772Z,25.13
2023-02-13T02:23:28.557Z,27.20
2023-02-13T02:26:57.643Z,28.42
2023-02-13T02:30:39.874Z,26.55
2023-02-13T02:34:22.662Z,28.33
2023-02-13T02:37:55.625Z,29.65
2023-02-13T02:41:19.614Z,28.38
2023-02-13T02:44:42.734Z,27.25
2023-02-13T02:48:02.569Z,27.60
2023-02-13T02:51:37.707Z,27.20
2023-02-13T02:54:53.287Z,32.95
2023-02-13T02:58:26.601Z,35.25
2023-02-13T03:01:30.306Z,33.60
2023-02-13T03:04:48.592Z,31.10
2023-02-13T03:07:56.599Z,33.38
2023-02-13T03:11:12.610Z,33.33
2023-02-13T03:14:26.598Z,35.30
2023-02-13T03:17:35.862Z,36.63
2023-02-13T03:21:04.695Z,32.55
2023-02-13T03:24:22.570Z,36.28
2023-02-13T03:27:50.213Z,37.53
2023-02-13T03:31:30.662Z,43.28
2023-02-13T03:34:38.431Z,37.85
2023-02-13T03:38:02.579Z,32.35
2023-02-13T03:41:30.581Z,38.40
2023-02-13T03:44:53.610Z,34.30
2023-02-13T03:48:05.578Z,39.15
2023-02-13T03:51:21.438Z,37.55
2023-02-13T03:54:36.602Z,34.95
2023-02-13T03:57:54.567Z,39.40
2023-02-13T04:01:00.837Z,31.62
2023-02-13T04:04:27.619Z,33.22
2023-02-13T04:07:29.399Z,36.10
2023-02-13T04:10:53.653Z,29.35
2023-02-13T04:14:04.562Z,30.48
2023-02-13T04:17:36.601Z,29.70
2023-02-13T04:20:51.608Z,32.00
2023-02-13T04:24:06.676Z,32.00
2023-02-13T04:27:19.583Z,31.73
2023-02-13T04:30:28.229Z,32.42
2023-02-13T04:33:36.575Z,31.65
2023-02-13T04:36:51.614Z,33.30
2023-02-13T04:39:53.771Z,32.88
2023-02-13T04:43:08.641Z,29.12
2023-02-13T04:46:10.725Z,31.57
2023-02-13T04:49:25.642Z,33.25
2023-02-13T04:52:33.596Z,32.17
2023-02-13T04:55:42.295Z,39.05
2023-02-13T04:58:50.570Z,30.37
2023-02-13T05:02:05.617Z,27.35
2023-02-13T05:05:14.613Z,28.05
2023-02-13T05:12:25.597Z,33.20
2023-02-13T05:15:40.612Z,34.97
2023-02-13T05:19:02.585Z,30.30
2023-02-13T05:22:04.341Z,31.37
2023-02-13T05:25:18.574Z,33.33
2023-02-13T05:28:33.643Z,31.23
2023-02-13T05:31:42.360Z,28.33
2023-02-13T05:34:50.611Z,28.52
2023-02-13T05:37:59.165Z,35.53
2023-02-13T05:41:07.625Z,34.80
2023-02-13T05:44:16.759Z,32.67
2023-02-13T05:47:24.633Z,32.60
2023-02-13T05:50:39.585Z,30.65
2023-02-13T05:53:54.939Z,26.48
2023-02-13T05:56:56.813Z,35.40
2023-02-13T06:00:12.701Z,31.53
2023-02-13T06:03:27.731Z,35.28
2023-02-13T06:06:41.677Z,31.95
2023-02-13T06:09:56.720Z,36.67
2023-02-13T06:12:58.691Z,32.97
2023-02-13T06:16:16.653Z,28.42
2023-02-13T06:19:31.753Z,28.73
2023-02-13T06:22:40.273Z,31.85
2023-02-13T06:25:54.677Z,29.87
2023-02-13T06:29:00.337Z,29.83
2023-02-13T06:32:17.633Z,28.12
2023-02-13T06:35:19.388Z,30.80
2023-02-13T06:38:33.658Z,27.07
2023-02-13T06:46:14.933Z,22.48
2023-02-13T06:49:25.752Z,23.08
2023-02-13T06:52:34.597Z,24.17
2023-02-13T06:55:43.361Z,27.80
2023-02-13T06:58:52.418Z,26.87
2023-02-13T07:02:20.405Z,25.98
2023-02-13T07:05:30.065Z,29.90
2023-02-13T07:08:45.687Z,27.33
2023-02-13T07:11:55.730Z,26.52
2023-02-13T07:15:36.896Z,27.62
2023-02-13T07:18:48.130Z,28.53
2023-02-13T07:22:02.625Z,29.73
2023-02-13T07:25:11.710Z,24.55
2023-02-13T07:28:21.001Z,17.92
2023-02-13T07:31:29.876Z,23.77
2023-02-13T07:35:00.907Z,25.67
2023-02-13T07:38:16.748Z,23.00
2023-02-13T07:41:31.693Z,25.15
2023-02-13T07:45:18.698Z,30.17
2023-02-13T07:48:28.445Z,29.80
2023-02-13T07:51:43.643Z,31.75
2023-02-13T07:54:45.441Z,32.35
2023-02-13T07:57:59.668Z,29.98
2023-02-13T08:01:14.683Z,31.15
2023-02-13T08:04:30.274Z,31.27
2023-02-13T08:07:39.579Z,34.90
2023-02-13T08:11:00.626Z,31.92
2023-02-13T08:14:02.552Z,36.08
2023-02-13T08:17:17.645Z,29.83
2023-02-13T08:20:33.510Z,30.95
2023-02-13T08:23:49.809Z,29.92
2023-02-13T08:26:58.714Z,29.77
2023-02-13T08:30:08.517Z,29.50
2023-02-13T08:33:16.645Z,31.30
2023-02-13T08:36:25.480Z,28.70
2023-02-13T08:39:40.686Z,20.65
2023-02-13T08:43:09.722Z,20.00
2023-02-13T08:46:17.852Z,17.70
2023-02-13T08:49:26.430Z,20.93
2023-02-13T08:52:48.616Z,19.67
2023-02-13T08:59:29.695Z,23.50
2023-02-13T09:02:38.388Z,19.45
2023-02-13T09:05:46.838Z,21.17
2023-02-13T09:09:01.636Z,21.25
2023-02-13T09:12:03.860Z,22.27
2023-02-13T09:15:18.736Z,19.08
2023-02-13T09:18:28.344Z,21.75
2023-02-13T09:21:42.969Z,21.87
2023-02-13T09:24:54.643Z,21.08
2023-02-13T09:28:03.353Z,25.62
2023-02-13T09:31:13.915Z,20.33
2023-02-13T09:34:22.429Z,24.08
2023-02-13T09:41:46.775Z,29.05
2023-02-13T09:45:01.944Z,24.17
2023-02-13T09:48:12.705Z,23.17
2023-02-13T09:51:24.217Z,25.15
2023-02-13T09:54:34.698Z,25.23
2023-02-13T09:58:00.833Z,26.17
2023-02-13T10:01:31.062Z,22.77
2023-02-13T10:04:55.287Z,24.35
2023-02-13T10:19:54.601Z,23.73
2023-02-13T10:23:24.656Z,19.95
2023-02-13T10:26:43.744Z,29.00
2023-02-13T10:30:05.816Z,26.67
2023-02-13T10:33:28.685Z,21.20
2023-02-13T10:36:48.693Z,23.12
2023-02-13T10:39:57.645Z,21.27
2023-02-13T10:43:16.917Z,28.73
2023-02-13T10:50:24.774Z,22.70
2023-02-13T10:54:05.874Z,22.13
2023-02-13T11:01:48.944Z,24.25
2023-02-13T11:05:19.505Z,22.93
2023-02-13T11:08:46.668Z,27.97
2023-02-13T11:11:55.953Z,24.27
2023-02-13T11:15:07.569Z,26.12
2023-02-13T11:22:05.787Z,23.77
2023-02-13T11:25:25.015Z,20.93
2023-02-13T11:28:44.791Z,25.70
2023-02-13T11:32:05.551Z,23.05
2023-02-13T12:14:51.642Z,26.57
2023-02-13T12:18:26.750Z,32.37
2023-02-13T12:26:06.710Z,27.95
2023-02-13T12:29:50.941Z,24.23
2023-02-13T12:33:38.185Z,23.23
2023-02-13T12:37:36.773Z,26.37
2023-02-13T12:45:33.626Z,30.30
2023-02-13T12:49:08.687Z,34.53
2023-02-13T12:52:34.636Z,28.80
2023-02-13T12:56:22.800Z,37.93
2023-02-13T12:59:42.973Z,39.00
2023-02-13T13:30:41.913Z,29.03
2023-02-13T13:38:02.817Z,23.42
2023-02-13T13:41:24.705Z,15.73
2023-02-13T13:45:05.181Z,9.30
2023-02-13T13:48:31.609Z,10.73
2023-02-13T14:07:59.737Z,14.97
2023-02-13T14:23:56.801Z,14.57
2023-02-13T14:27:35.354Z,10.47
2023-02-13T14:34:37.761Z,17.70
2023-02-13T15:55:47.837Z,17.77
2023-02-13T15:59:06.868Z,14.03
2023-02-13T16:02:26.787Z,19.97
2023-02-13T16:09:59.830Z,13.50
2023-02-13T16:21:14.768Z,11.23
2023-02-13T16:24:23.754Z,12.75
2023-02-13T16:31:28.931Z,12.35
2023-02-13T16:34:37.672Z,11.00
2023-02-13T16:37:59.773Z,11.17
2023-02-13T16:41:04.833Z,11.07
2023-02-13T16:48:09.695Z,9.73
2023-02-13T16:51:37.861Z,9.60
2023-02-13T16:59:22.193Z,12.43
2023-02-13T17:02:57.742Z,12.30
2023-02-13T17:10:37.855Z,11.88
2023-02-13T17:29:11.794Z,11.23
2023-02-13T17:40:27.770Z,12.30
2023-02-13T18:10:40.710Z,12.37
2023-02-13T18:21:50.998Z,12.68
2023-02-13T18:29:44.968Z,13.57
2023-02-13T18:40:44.762Z,16.77
2023-02-13T18:59:25.748Z,14.40
2023-02-13T19:10:38.779Z,20.50
2023-02-13T19:29:47.860Z,16.80
2023-02-13T19:36:57.728Z,14.93
2023-02-13T19:40:13.989Z,16.25
2023-02-13T19:43:23.459Z,14.15
2023-02-13T19:50:23.725Z,13.55
2023-02-13T19:57:28.913Z,18.73
2023-02-13T20:00:43.873Z,15.27
2023-02-13T20:08:04.232Z,14.18
2023-02-13T20:11:29.790Z,14.75
2023-02-13T20:14:55.225Z,17.48
2023-02-13T20:18:10.554Z,15.75
2023-02-13T20:21:44.793Z,14.50
2023-02-13T20:24:46.886Z,17.48
2023-02-13T20:28:01.765Z,14.75
2023-02-13T20:31:33.245Z,15.95
2023-02-13T20:34:58.182Z,15.73
2023-02-13T20:42:22.365Z,15.90
2023-02-13T20:49:12.735Z,15.68
2023-02-13T20:52:21.759Z,15.02
2023-02-13T20:55:37.735Z,14.33
2023-02-13T20:58:48.257Z,13.90
2023-02-13T21:01:56.750Z,15.70
2023-02-13T21:09:20.785Z,13.73
2023-02-13T21:12:29.763Z,12.77
2023-02-13T21:15:44.753Z,14.27
2023-02-13T21:18:55.798Z,13.45
2023-02-13T21:22:04.529Z,11.90
2023-02-13T21:25:30.762Z,14.55
2023-02-13T21:28:40.491Z,15.87
2023-02-13T21:31:52.808Z,15.23
2023-02-13T21:35:03.061Z,12.05
2023-02-13T21:38:10.812Z,14.80
2023-02-13T21:41:19.785Z,19.75
2023-02-13T21:44:27.758Z,12.13
2023-02-13T21:47:42.739Z,14.57
2023-02-13T21:50:44.570Z,15.38
2023-02-13T21:53:59.759Z,13.10
2023-02-13T21:57:04.062Z,17.45
2023-02-13T22:00:19.732Z,15.10
2023-02-13T22:03:27.798Z,13.25
2023-02-13T22:06:38.522Z,19.60
2023-02-13T22:09:52.801Z,17.70
2023-02-13T22:13:01.498Z,14.35
2023-02-13T22:16:12.810Z,17.03
2023-02-13T22:19:21.732Z,19.90
2023-02-13T22:22:29.801Z,17.92
2023-02-13T22:25:44.802Z,30.50
2023-02-13T22:28:47.392Z,17.55
2023-02-13T22:32:01.820Z,16.37
2023-02-13T22:35:09.972Z,18.50
2023-02-13T22:38:24.797Z,14.95
2023-02-13T22:41:33.788Z,17.37
2023-02-13T22:44:42.341Z,17.20
2023-02-13T22:47:50.759Z,15.83
2023-02-13T22:51:02.957Z,16.10
2023-02-13T22:54:17.757Z,16.77
2023-02-13T22:57:26.358Z,15.88
2023-02-13T23:00:34.806Z,14.20
2023-02-13T23:03:44.353Z,13.17
2023-02-13T23:06:52.737Z,13.93
2023-02-13T23:10:07.801Z,19.55
2023-02-13T23:13:10.624Z,14.43
2023-02-13T23:16:25.815Z,15.18
2023-02-13T23:19:40.789Z,14.47
2023-02-13T23:22:42.794Z,14.98
2023-02-13T23:25:57.798Z,13.52
2023-02-13T23:28:59.465Z,16.45
2023-02-13T23:32:13.909Z,16.00
2023-02-13T23:35:29.814Z,14.63
2023-02-13T23:38:31.565Z,17.80
2023-02-13T23:41:45.825Z,16.42
2023-02-13T23:44:47.452Z,15.43
2023-02-13T23:48:01.820Z,16.60
2023-02-13T23:51:03.745Z,17.53
2023-02-13T23:54:22.033Z,21.30
2023-02-13T23:57:29.774Z,16.62
